Flight Track Log - Related Links

Times and Time Zones

All times are in EDT time to prevent confusion due to time zone crossing. See the SWA718 flight status page for this flight to view local times or setup timezone preferences in your user account.

Time Position Orientation Groundspeed Altitude Reporting Facility
EDT Latitude Longitude Course Direction KTS MPH feet Rate Location/Type
Thu 05:14:45 PM 29.5814 -95.2283 148° Southeast 207 238 3,500  Level Houston Center
Thu 05:15:13 PM 29.5756 -95.2014 104° East 211 243 4,200 1,935 Climbing Houston Center
Thu 05:15:47 PM 29.5939 -95.1594 63° Northeast 266 306 5,500 2,323 Climbing Houston Center
Thu 05:16:15 PM 29.6072 -95.1322 61° Northeast 253 291 6,600 3,067 Climbing Houston Center
Thu 05:17:17 PM 29.6400 -95.0494 65° Northeast 291 335 10,100 2,952 Climbing Houston Center
Thu 05:18:19 PM 29.6556 -94.9211 82° East 346 398 12,700 2,952 Climbing Houston Center
Thu 05:19:21 PM 29.6694 -94.7994 82° East 382 440 16,200 2,952 Climbing Houston Center
Thu 05:20:23 PM 29.6833 -94.6736 83° East 394 453 18,800 2,256 Climbing Houston Center
Thu 05:21:26 PM 29.6983 -94.5414 83° East 416 479 20,900 2,160 Climbing Houston Center
Thu 05:22:28 PM 29.7142 -94.3997 83° East 442 509 23,300 2,129 Climbing Houston Center
Thu 05:23:30 PM 29.7114 -94.2539 91° East 457 526 25,300 1,887 Climbing Houston Center
Thu 05:24:32 PM 29.6933 -94.0917 97° East 477 549 27,200 1,742 Climbing Houston Center
Thu 05:25:34 PM 29.6847 -93.9361 94° East 489 563 28,900 1,500 Climbing Houston Center
Thu 05:26:36 PM 29.6839 -93.7431 90° East 507 583 30,300 1,548 Climbing Houston Center
Thu 05:27:38 PM 29.6825 -93.5764 91° East 522 601 32,100 1,597 Climbing Houston Center
Thu 05:28:40 PM 29.6792 -93.4125 91° East 520 598 33,600 1,403 Climbing Houston Center
Thu 05:29:42 PM 29.6772 -93.2486 91° East 519 597 35,000 1,296 Climbing Houston Center
Thu 05:30:45 PM 29.6750 -93.0483 91° East 525 604 36,300 1,152 Climbing Houston Center
Thu 05:31:47 PM 29.6722 -92.8794 91° East 533 613 37,400 871 Climbing Houston Center
Thu 05:32:49 PM 29.6694 -92.7100 91° East 536 617 38,100 726 Climbing Houston Center
Thu 05:33:51 PM 29.6653 -92.5372 92° East 542 624 38,900 435 Climbing Houston Center
Thu 05:34:53 PM 29.6603 -92.3619 92° East 550 633 39,000 48 Climbing Houston Center
Thu 05:35:55 PM 29.6253 -92.1914 103° East 548 631 39,000  Level Houston Center
Thu 05:36:57 PM 29.5825 -91.9878 104° East 550 633 39,000  Level Houston Center
Thu 05:37:59 PM 29.5486 -91.8192 103° East 544 626 39,000  Level Houston Center
Thu 05:39:01 PM 29.5136 -91.6531 104° East 544 626 39,000  Level Houston Center
Thu 05:40:04 PM 29.4778 -91.4833 104° East 547 629 39,000  Level Houston Center
Thu 05:41:06 PM 29.4417 -91.3147 104° East 546 628 39,000  Level Houston Center
Thu 05:42:08 PM 29.3983 -91.1144 104° East 543 625 39,000  Level Houston Center
Thu 05:43:10 PM 29.3619 -90.9472 104° East 542 624 39,000  Level Houston Center
Thu 05:44:12 PM 29.3256 -90.7806 104° East 543 625 39,000  Level Houston Center
Thu 05:45:14 PM 29.2883 -90.6133 104° East 544 626 39,000  Level Houston Center
Thu 05:46:16 PM 29.2511 -90.4456 104° East 545 627 39,000  Level Houston Center
Thu 05:47:18 PM 29.2069 -90.2439 104° East 547 629 39,000  Level Houston Center
Thu 05:48:20 PM 29.1681 -90.0761 105° East 547 629 39,000  Level Houston Center
Thu 05:49:22 PM 29.1350 -89.9069 103° East 548 631 39,000  Level Houston Center
Thu 05:50:25 PM 29.1006 -89.7386 103° East 548 631 39,000  Level Houston Center
Thu 05:51:27 PM 29.0650 -89.5714 104° East 544 626 39,000  Level Houston Center
Thu 05:52:29 PM 29.0244 -89.3703 103° East 543 625 39,000  Level Houston Center
Thu 05:53:31 PM 28.9903 -89.2075 103° East 533 613 39,000  Level Houston Center
Thu 05:54:33 PM 28.9561 -89.0439 103° East 532 612 39,000  Level Houston Center
Thu 05:55:35 PM 28.9214 -88.8817 104° East 529 609 39,000  Level Houston Center
Thu 05:56:37 PM 28.8861 -88.7203 104° East 526 605 39,000  Level Houston Center
Thu 05:57:39 PM 28.8344 -88.5256 107° East 533 613 39,000  Level Houston Center
Thu 05:58:41 PM 28.7894 -88.3658 108° East 532 612 39,000  Level Houston Center
Thu 05:59:43 PM 28.7453 -88.2036 107° East 536 617 39,000  Level Houston Center
Thu 06:00:46 PM 28.6975 -88.0356 108° East 534 615 39,000  Level Houston Center
Thu 06:01:48 PM 28.6519 -87.8728 108° East 540 621 39,000  Level Houston Center
Thu 06:02:50 PM 28.6064 -87.7114 108° East 540 621 39,000  Level Houston Center
Thu 06:03:52 PM 28.5606 -87.5497 108° East 539 620 39,000  Level Houston Center
Thu 06:04:54 PM 28.5058 -87.3569 108° East 536 617 39,000  Level Houston Center
Thu 06:05:52 PM 28.4672 -87.2206 108° East 507 583 39,000  Level Jacksonville Center
Thu 06:06:52 PM 28.4164 -87.0556 109° East 526 605 39,000  Level Jacksonville Center
Thu 06:07:52 PM 28.3694 -86.8908 108° East 537 618 39,000  Level Jacksonville Center
Thu 06:08:52 PM 28.3222 -86.7311 109° East 531 611 39,000  Level Jacksonville Center
Thu 06:09:52 PM 28.2767 -86.5739 108° East 531 611 39,000  Level Jacksonville Center
Thu 06:10:52 PM 28.2256 -86.3931 108° East 544 626 39,000  Level Jacksonville Center
Thu 06:11:52 PM 28.1756 -86.2311 109° East 544 626 39,000  Level Jacksonville Center
Thu 06:12:52 PM 28.1294 -86.0744 108° East 539 620 39,000  Level Jacksonville Center
Thu 06:13:52 PM 28.0831 -85.9200 109° East 533 613 39,000  Level Jacksonville Center
Thu 06:14:52 PM 28.0328 -85.7492 108° East 538 619 39,000  Level Jacksonville Center
Thu 06:17:15 PM 27.9172 -85.3636 109° East 541 623 39,000  Level Miami Center
Thu 06:18:15 PM 27.8761 -85.2153 107° East 541 623 39,000  Level Miami Center
Thu 06:19:15 PM 27.8625 -85.0525 95° East 535 616 39,000  Level Miami Center
Thu 06:20:15 PM 27.8592 -84.8881 91° East 523 602 39,000 -350 Level Miami Center
Thu 06:21:15 PM 27.8661 -84.7244 87° East 523 602 38,300 -850 Descending Miami Center
Thu 06:22:15 PM 27.8519 -84.5664 96° East 518 596 37,300 -1,000 Descending Miami Center
Thu 06:23:15 PM 27.8561 -84.4047 88° East 518 596 36,300 -1,150 Descending Miami Center
Thu 06:24:15 PM 27.8481 -84.2425 93° East 518 596 35,000 -1,700 Descending Miami Center
Thu 06:25:15 PM 27.8519 -84.0833 88° East 518 596 32,900 -2,200 Descending Miami Center
Thu 06:26:15 PM 27.8472 -83.9258 92° East 513 590 30,600 -2,300 Descending Miami Center
Thu 06:27:15 PM 27.8467 -83.7686 90° East 508 585 28,300 -1,850 Descending Miami Center
Thu 06:28:15 PM 27.8453 -83.6231 91° East 489 563 26,900 -1,350 Descending Miami Center
Thu 06:29:15 PM 27.8392 -83.4844 93° East 464 534 25,600 -1,200 Descending Miami Center
Thu 06:30:15 PM 27.8453 -83.3464 87° East 443 510 24,500 -1,000 Descending Miami Center
Thu 06:31:15 PM 27.8389 -83.2122 93° East 438 504 23,600 -750 Descending Miami Center
Thu 06:32:15 PM 27.8364 -83.0806 91° East 427 491 23,000 -300 Descending Miami Center
Thu 06:33:15 PM 27.8356 -82.9492 90° East 422 486 23,000 -100 Level Miami Center
Thu 06:34:15 PM 27.8308 -82.8175 92° East 422 486 22,800 -400 Descending Miami Center
Thu 06:35:15 PM 27.8278 -82.6883 92° East 422 486 22,200 -750 Descending Miami Center
Thu 06:36:15 PM 27.8264 -82.5617 91° East 417 480 21,300 -950 Descending Miami Center
Thu 06:37:15 PM 27.8564 -82.4411 74° East 401 461 20,300 -1,000 Descending Miami Center
Thu 06:38:15 PM 27.8878 -82.3228 73° East 396 456 19,300 -1,145 Descending Miami Center
Thu 06:40:08 PM 27.9667 -82.1000 68° East 381 438 17,000 -1,491 Descending Orlando TRACON
Thu 06:41:08 PM 28.0000 -81.9833 72° East 371 427 15,000 -2,000 Descending Orlando TRACON
Thu 06:42:08 PM 28.0500 -81.8833 60° Northeast 358 412 13,000 -1,240 Descending Orlando TRACON
Thu 06:43:09 PM 28.1000 -81.8000 56° Northeast 339 390 12,500 -793 Descending Orlando TRACON
Thu 06:44:09 PM 28.1333 -81.7167 66° East 301 346 11,400 -1,300 Descending Orlando TRACON
Thu 06:45:09 PM 28.1833 -81.6333 56° Northeast 287 330 9,900 -1,200 Descending Orlando TRACON
Thu 06:46:09 PM 28.2333 -81.5667 50° Northeast 272 313 9,000 -450 Descending Orlando TRACON
Thu 06:47:09 PM 28.2667 -81.5000 60° Northeast 239 275 9,000  Level Orlando TRACON
Thu 06:48:03 PM 28.3167 -81.4500 41° Northeast 238 274 9,000 -474 Level Orlando TRACON
Thu 06:49:03 PM 28.3667 -81.4167 30° Northeast 229 264 8,100 -1,364 Descending Orlando TRACON
Thu 06:50:15 PM 28.4500 -81.4167 360° North 276 318 6,000 -1,398 Descending Orlando TRACON
Thu 06:51:16 PM 28.5167 -81.4000 12° North 254 292 5,000 -826 Descending Orlando TRACON
Thu 06:52:04 PM 28.5667 -81.3833 16° North 233 268 4,500 -444 Descending Orlando TRACON
Thu 06:53:04 PM 28.5667 -81.3167 90° East 177 204 4,200 -750 Descending Orlando TRACON
Thu 06:54:04 PM 28.5500 -81.2833 120° Southeast 147 169 3,000 -1,250 Descending Orlando TRACON
Thu 06:55:04 PM 28.5167 -81.3000 204° Southwest 142 163 1,700 -1,300 Descending Orlando TRACON

Login

Don't have an account? Register now (free) for customized features, flight alerts, and more!